sensor_id;sensor_type;location;lat;lon;timestamp;P1;durP1;ratioP1;P2;durP2;ratioP2
78298;SDS011;67556;55.656;12.590;2023-02-28T00:00:03;12.13;;;7.72;;
78298;SDS011;67556;55.656;12.590;2023-02-28T00:02:34;8.48;;;6.97;;
78298;SDS011;67556;55.656;12.590;2023-02-28T00:05:01;10.02;;;7.25;;
78298;SDS011;67556;55.656;12.590;2023-02-28T00:07:28;11.18;;;7.60;;
78298;SDS011;67556;55.656;12.590;2023-02-28T00:09:57;11.27;;;7.35;;
78298;SDS011;67556;55.656;12.590;2023-02-28T00:12:23;12.77;;;7.72;;
78298;SDS011;67556;55.656;12.590;2023-02-28T00:14:50;11.00;;;7.63;;
78298;SDS011;67556;55.656;12.590;2023-02-28T00:17:17;11.20;;;7.22;;
78298;SDS011;67556;55.656;12.590;2023-02-28T00:19:46;10.82;;;7.63;;
78298;SDS011;67556;55.656;12.590;2023-02-28T00:22:12;13.88;;;8.48;;
78298;SDS011;67556;55.656;12.590;2023-02-28T00:24:39;12.80;;;7.13;;
78298;SDS011;67556;55.656;12.590;2023-02-28T00:27:07;12.05;;;7.90;;
78298;SDS011;67556;55.656;12.590;2023-02-28T00:29:33;13.88;;;7.60;;
78298;SDS011;67556;55.656;12.590;2023-02-28T00:32:00;8.70;;;6.43;;
78298;SDS011;67556;55.656;12.590;2023-02-28T00:34:26;9.38;;;6.70;;
78298;SDS011;67556;55.656;12.590;2023-02-28T00:36:53;10.43;;;7.13;;
78298;SDS011;67556;55.656;12.590;2023-02-28T00:39:19;9.45;;;6.75;;
78298;SDS011;67556;55.656;12.590;2023-02-28T00:41:46;10.45;;;7.55;;
78298;SDS011;67556;55.656;12.590;2023-02-28T00:44:14;10.45;;;6.97;;
78298;SDS011;67556;55.656;12.590;2023-02-28T00:46:41;10.85;;;7.45;;
78298;SDS011;67556;55.656;12.590;2023-02-28T00:49:07;11.65;;;6.95;;
78298;SDS011;67556;55.656;12.590;2023-02-28T00:51:33;13.95;;;7.28;;
78298;SDS011;67556;55.656;12.590;2023-02-28T00:54:00;10.65;;;7.45;;
78298;SDS011;67556;55.656;12.590;2023-02-28T00:56:26;11.23;;;8.07;;
78298;SDS011;67556;55.656;12.590;2023-02-28T00:58:53;12.75;;;6.85;;
78298;SDS011;67556;55.656;12.590;2023-02-28T01:01:21;11.05;;;7.40;;
78298;SDS011;67556;55.656;12.590;2023-02-28T01:03:47;13.57;;;7.53;;
78298;SDS011;67556;55.656;12.590;2023-02-28T01:06:13;10.25;;;7.05;;
78298;SDS011;67556;55.656;12.590;2023-02-28T01:08:40;9.65;;;6.88;;
78298;SDS011;67556;55.656;12.590;2023-02-28T01:11:07;9.93;;;7.45;;
78298;SDS011;67556;55.656;12.590;2023-02-28T01:13:35;10.60;;;7.68;;
78298;SDS011;67556;55.656;12.590;2023-02-28T01:16:01;11.93;;;7.60;;
78298;SDS011;67556;55.656;12.590;2023-02-28T01:18:29;11.15;;;7.57;;
78298;SDS011;67556;55.656;12.590;2023-02-28T01:20:56;9.60;;;6.63;;
78298;SDS011;67556;55.656;12.590;2023-02-28T01:23:22;11.15;;;7.85;;
78298;SDS011;67556;55.656;12.590;2023-02-28T01:25:49;11.30;;;7.22;;
78298;SDS011;67556;55.656;12.590;2023-02-28T01:28:16;12.23;;;7.90;;
78298;SDS011;67556;55.656;12.590;2023-02-28T01:30:46;15.57;;;8.65;;
78298;SDS011;67556;55.656;12.590;2023-02-28T01:33:13;11.77;;;7.97;;
78298;SDS011;67556;55.656;12.590;2023-02-28T01:35:41;13.50;;;8.07;;
78298;SDS011;67556;55.656;12.590;2023-02-28T01:38:08;15.77;;;8.55;;
78298;SDS011;67556;55.656;12.590;2023-02-28T01:40:35;12.38;;;7.25;;
78298;SDS011;67556;55.656;12.590;2023-02-28T01:43:02;11.40;;;7.80;;
78298;SDS011;67556;55.656;12.590;2023-02-28T01:45:29;12.02;;;8.15;;
78298;SDS011;67556;55.656;12.590;2023-02-28T01:47:58;14.27;;;8.32;;
78298;SDS011;67556;55.656;12.590;2023-02-28T01:50:29;16.45;;;9.50;;
78298;SDS011;67556;55.656;12.590;2023-02-28T01:53:02;14.32;;;8.63;;
78298;SDS011;67556;55.656;12.590;2023-02-28T01:55:31;11.23;;;8.30;;
78298;SDS011;67556;55.656;12.590;2023-02-28T01:58:00;13.65;;;8.75;;
78298;SDS011;67556;55.656;12.590;2023-02-28T02:00:30;11.50;;;8.25;;
78298;SDS011;67556;55.656;12.590;2023-02-28T02:02:58;13.02;;;8.35;;
78298;SDS011;67556;55.656;12.590;2023-02-28T02:05:27;13.55;;;8.82;;
78298;SDS011;67556;55.656;12.590;2023-02-28T02:07:56;15.70;;;9.65;;
78298;SDS011;67556;55.656;12.590;2023-02-28T02:10:29;13.02;;;8.68;;
78298;SDS011;67556;55.656;12.590;2023-02-28T02:15:54;13.18;;;8.32;;
78298;SDS011;67556;55.656;12.590;2023-02-28T02:18:30;13.45;;;8.57;;
78298;SDS011;67556;55.656;12.590;2023-02-28T02:27:27;17.63;;;10.07;;
78298;SDS011;67556;55.656;12.590;2023-02-28T02:30:29;14.00;;;9.90;;
78298;SDS011;67556;55.656;12.590;2023-02-28T02:33:15;16.15;;;9.13;;
78298;SDS011;67556;55.656;12.590;2023-02-28T02:35:56;16.65;;;10.48;;
78298;SDS011;67556;55.656;12.590;2023-02-28T02:38:31;21.13;;;11.93;;
78298;SDS011;67556;55.656;12.590;2023-02-28T02:41:02;16.02;;;10.85;;
78298;SDS011;67556;55.656;12.590;2023-02-28T02:43:34;17.30;;;10.57;;
78298;SDS011;67556;55.656;12.590;2023-02-28T02:46:07;16.92;;;10.23;;
78298;SDS011;67556;55.656;12.590;2023-02-28T02:48:38;14.65;;;10.85;;
78298;SDS011;67556;55.656;12.590;2023-02-28T02:51:10;16.02;;;10.05;;
78298;SDS011;67556;55.656;12.590;2023-02-28T02:53:42;16.23;;;11.23;;
78298;SDS011;67556;55.656;12.590;2023-02-28T02:56:15;13.43;;;9.90;;
78298;SDS011;67556;55.656;12.590;2023-02-28T02:58:44;16.58;;;9.90;;
78298;SDS011;67556;55.656;12.590;2023-02-28T03:01:14;16.88;;;11.18;;
78298;SDS011;67556;55.656;12.590;2023-02-28T03:03:54;17.75;;;10.10;;
78298;SDS011;67556;55.656;12.590;2023-02-28T03:06:23;16.17;;;10.40;;
78298;SDS011;67556;55.656;12.590;2023-02-28T03:08:50;16.00;;;10.25;;
78298;SDS011;67556;55.656;12.590;2023-02-28T03:11:17;13.60;;;9.82;;
78298;SDS011;67556;55.656;12.590;2023-02-28T03:13:52;15.13;;;9.77;;
78298;SDS011;67556;55.656;12.590;2023-02-28T03:16:32;15.75;;;9.80;;
78298;SDS011;67556;55.656;12.590;2023-02-28T03:19:08;16.67;;;11.10;;
78298;SDS011;67556;55.656;12.590;2023-02-28T03:21:50;18.98;;;10.25;;
78298;SDS011;67556;55.656;12.590;2023-02-28T03:24:26;17.63;;;11.38;;
78298;SDS011;67556;55.656;12.590;2023-02-28T03:27:04;18.23;;;9.90;;
78298;SDS011;67556;55.656;12.590;2023-02-28T03:29:35;15.35;;;9.95;;
78298;SDS011;67556;55.656;12.590;2023-02-28T03:32:06;14.93;;;10.45;;
78298;SDS011;67556;55.656;12.590;2023-02-28T03:34:39;17.00;;;9.30;;
78298;SDS011;67556;55.656;12.590;2023-02-28T03:37:11;15.98;;;9.73;;
78298;SDS011;67556;55.656;12.590;2023-02-28T03:39:42;15.85;;;10.50;;
78298;SDS011;67556;55.656;12.590;2023-02-28T03:42:14;15.00;;;10.38;;
78298;SDS011;67556;55.656;12.590;2023-02-28T03:44:46;15.10;;;9.80;;
78298;SDS011;67556;55.656;12.590;2023-02-28T03:47:16;14.07;;;9.90;;
78298;SDS011;67556;55.656;12.590;2023-02-28T03:49:49;14.57;;;10.15;;
78298;SDS011;67556;55.656;12.590;2023-02-28T03:54:50;19.75;;;11.13;;
78298;SDS011;67556;55.656;12.590;2023-02-28T03:57:22;14.50;;;10.48;;
78298;SDS011;67556;55.656;12.590;2023-02-28T03:59:53;17.52;;;11.32;;
78298;SDS011;67556;55.656;12.590;2023-02-28T04:02:22;15.23;;;10.80;;
78298;SDS011;67556;55.656;12.590;2023-02-28T04:04:48;14.43;;;10.90;;
78298;SDS011;67556;55.656;12.590;2023-02-28T04:07:16;14.77;;;10.23;;
78298;SDS011;67556;55.656;12.590;2023-02-28T04:09:44;15.52;;;9.77;;
78298;SDS011;67556;55.656;12.590;2023-02-28T04:12:11;17.63;;;10.80;;
78298;SDS011;67556;55.656;12.590;2023-02-28T04:14:37;16.77;;;10.70;;
78298;SDS011;67556;55.656;12.590;2023-02-28T04:17:04;16.20;;;10.63;;
78298;SDS011;67556;55.656;12.590;2023-02-28T04:19:30;16.88;;;9.68;;
78298;SDS011;67556;55.656;12.590;2023-02-28T04:21:57;17.60;;;10.15;;
78298;SDS011;67556;55.656;12.590;2023-02-28T04:24:25;15.40;;;10.73;;
78298;SDS011;67556;55.656;12.590;2023-02-28T04:26:55;14.10;;;9.68;;
78298;SDS011;67556;55.656;12.590;2023-02-28T04:29:23;13.10;;;9.57;;
78298;SDS011;67556;55.656;12.590;2023-02-28T04:31:51;16.27;;;10.23;;
78298;SDS011;67556;55.656;12.590;2023-02-28T04:34:19;16.80;;;10.57;;
78298;SDS011;67556;55.656;12.590;2023-02-28T04:36:46;16.45;;;11.40;;
78298;SDS011;67556;55.656;12.590;2023-02-28T04:39:14;19.27;;;10.90;;
78298;SDS011;67556;55.656;12.590;2023-02-28T04:41:40;17.05;;;10.73;;
78298;SDS011;67556;55.656;12.590;2023-02-28T04:44:08;17.52;;;12.65;;
78298;SDS011;67556;55.656;12.590;2023-02-28T04:46:35;16.17;;;10.63;;
78298;SDS011;67556;55.656;12.590;2023-02-28T04:49:02;17.42;;;10.63;;
78298;SDS011;67556;55.656;12.590;2023-02-28T04:51:29;16.38;;;10.00;;
78298;SDS011;67556;55.656;12.590;2023-02-28T04:53:55;15.38;;;11.00;;
78298;SDS011;67556;55.656;12.590;2023-02-28T04:56:21;15.43;;;11.20;;
78298;SDS011;67556;55.656;12.590;2023-02-28T04:58:48;15.57;;;10.15;;
78298;SDS011;67556;55.656;12.590;2023-02-28T05:01:20;17.98;;;12.45;;
78298;SDS011;67556;55.656;12.590;2023-02-28T05:03:49;15.77;;;10.48;;
78298;SDS011;67556;55.656;12.590;2023-02-28T05:06:16;17.80;;;10.20;;
78298;SDS011;67556;55.656;12.590;2023-02-28T05:08:43;15.85;;;10.10;;
78298;SDS011;67556;55.656;12.590;2023-02-28T05:11:13;15.48;;;10.85;;
78298;SDS011;67556;55.656;12.590;2023-02-28T05:13:41;15.77;;;9.75;;
78298;SDS011;67556;55.656;12.590;2023-02-28T05:16:08;15.95;;;10.77;;
78298;SDS011;67556;55.656;12.590;2023-02-28T05:18:36;18.30;;;11.95;;
78298;SDS011;67556;55.656;12.590;2023-02-28T05:21:03;14.88;;;10.77;;
78298;SDS011;67556;55.656;12.590;2023-02-28T05:23:30;16.02;;;9.90;;
78298;SDS011;67556;55.656;12.590;2023-02-28T05:25:56;14.82;;;11.43;;
78298;SDS011;67556;55.656;12.590;2023-02-28T05:28:23;15.02;;;10.27;;
78298;SDS011;67556;55.656;12.590;2023-02-28T05:30:49;15.82;;;10.35;;
78298;SDS011;67556;55.656;12.590;2023-02-28T05:33:16;15.07;;;10.05;;
78298;SDS011;67556;55.656;12.590;2023-02-28T05:35:44;15.45;;;11.52;;
78298;SDS011;67556;55.656;12.590;2023-02-28T05:38:10;14.98;;;10.88;;
78298;SDS011;67556;55.656;12.590;2023-02-28T05:40:37;19.50;;;12.77;;
78298;SDS011;67556;55.656;12.590;2023-02-28T05:43:04;16.90;;;10.90;;
78298;SDS011;67556;55.656;12.590;2023-02-28T05:45:31;18.50;;;11.73;;
78298;SDS011;67556;55.656;12.590;2023-02-28T05:47:57;20.05;;;12.70;;
78298;SDS011;67556;55.656;12.590;2023-02-28T05:50:24;15.27;;;11.90;;
78298;SDS011;67556;55.656;12.590;2023-02-28T05:52:52;17.23;;;11.23;;
78298;SDS011;67556;55.656;12.590;2023-02-28T05:55:19;17.17;;;10.73;;
78298;SDS011;67556;55.656;12.590;2023-02-28T05:57:46;17.67;;;10.95;;
78298;SDS011;67556;55.656;12.590;2023-02-28T06:00:13;15.02;;;10.73;;
78298;SDS011;67556;55.656;12.590;2023-02-28T06:02:40;16.40;;;11.98;;
78298;SDS011;67556;55.656;12.590;2023-02-28T06:05:08;20.83;;;13.38;;
78298;SDS011;67556;55.656;12.590;2023-02-28T06:07:39;18.08;;;12.88;;
78298;SDS011;67556;55.656;12.590;2023-02-28T06:10:08;16.33;;;12.45;;
78298;SDS011;67556;55.656;12.590;2023-02-28T06:12:36;18.13;;;12.52;;
78298;SDS011;67556;55.656;12.590;2023-02-28T06:15:03;21.55;;;14.35;;
78298;SDS011;67556;55.656;12.590;2023-02-28T06:17:30;20.27;;;14.90;;
78298;SDS011;67556;55.656;12.590;2023-02-28T06:19:56;21.23;;;15.57;;
78298;SDS011;67556;55.656;12.590;2023-02-28T06:22:23;21.13;;;16.95;;
78298;SDS011;67556;55.656;12.590;2023-02-28T06:24:49;19.33;;;15.05;;
78298;SDS011;67556;55.656;12.590;2023-02-28T06:27:19;20.38;;;15.35;;
78298;SDS011;67556;55.656;12.590;2023-02-28T06:29:45;21.48;;;14.88;;
78298;SDS011;67556;55.656;12.590;2023-02-28T06:32:12;21.75;;;15.10;;
78298;SDS011;67556;55.656;12.590;2023-02-28T06:34:39;20.60;;;13.32;;
78298;SDS011;67556;55.656;12.590;2023-02-28T06:37:05;18.00;;;11.45;;
78298;SDS011;67556;55.656;12.590;2023-02-28T06:39:32;16.92;;;12.05;;
78298;SDS011;67556;55.656;12.590;2023-02-28T06:41:58;19.23;;;11.32;;
78298;SDS011;67556;55.656;12.590;2023-02-28T06:44:26;20.98;;;12.07;;
78298;SDS011;67556;55.656;12.590;2023-02-28T06:47:00;19.90;;;11.02;;
78298;SDS011;67556;55.656;12.590;2023-02-28T06:49:29;23.67;;;13.30;;
78298;SDS011;67556;55.656;12.590;2023-02-28T06:51:55;17.73;;;11.32;;
78298;SDS011;67556;55.656;12.590;2023-02-28T06:54:22;18.85;;;10.63;;
78298;SDS011;67556;55.656;12.590;2023-02-28T06:56:48;16.85;;;10.82;;
78298;SDS011;67556;55.656;12.590;2023-02-28T06:59:15;17.58;;;11.63;;
78298;SDS011;67556;55.656;12.590;2023-02-28T07:01:43;15.48;;;11.32;;
78298;SDS011;67556;55.656;12.590;2023-02-28T07:04:10;17.92;;;12.07;;
78298;SDS011;67556;55.656;12.590;2023-02-28T07:06:38;19.80;;;12.57;;
78298;SDS011;67556;55.656;12.590;2023-02-28T07:09:05;20.60;;;13.13;;
78298;SDS011;67556;55.656;12.590;2023-02-28T07:11:31;23.25;;;12.60;;
78298;SDS011;67556;55.656;12.590;2023-02-28T07:13:58;19.80;;;12.38;;
78298;SDS011;67556;55.656;12.590;2023-02-28T07:16:27;20.05;;;12.68;;
78298;SDS011;67556;55.656;12.590;2023-02-28T07:18:55;25.25;;;13.68;;
78298;SDS011;67556;55.656;12.590;2023-02-28T07:21:22;17.58;;;11.88;;
78298;SDS011;67556;55.656;12.590;2023-02-28T07:23:48;22.42;;;13.15;;
78298;SDS011;67556;55.656;12.590;2023-02-28T07:26:16;20.75;;;12.45;;
78298;SDS011;67556;55.656;12.590;2023-02-28T07:28:44;19.95;;;12.50;;
78298;SDS011;67556;55.656;12.590;2023-02-28T07:31:12;18.58;;;12.27;;
78298;SDS011;67556;55.656;12.590;2023-02-28T07:33:40;21.40;;;13.02;;
78298;SDS011;67556;55.656;12.590;2023-02-28T07:36:10;19.48;;;13.43;;
78298;SDS011;67556;55.656;12.590;2023-02-28T07:38:40;20.95;;;12.82;;
78298;SDS011;67556;55.656;12.590;2023-02-28T07:41:07;21.23;;;12.85;;
78298;SDS011;67556;55.656;12.590;2023-02-28T07:43:34;22.02;;;13.48;;
78298;SDS011;67556;55.656;12.590;2023-02-28T07:46:02;21.30;;;14.23;;
78298;SDS011;67556;55.656;12.590;2023-02-28T07:48:29;19.15;;;13.00;;
78298;SDS011;67556;55.656;12.590;2023-02-28T07:50:57;19.73;;;12.73;;
78298;SDS011;67556;55.656;12.590;2023-02-28T07:53:25;20.60;;;12.98;;
78298;SDS011;67556;55.656;12.590;2023-02-28T07:55:54;26.63;;;12.52;;
78298;SDS011;67556;55.656;12.590;2023-02-28T07:58:21;22.15;;;12.77;;
78298;SDS011;67556;55.656;12.590;2023-02-28T08:00:48;23.35;;;13.35;;
78298;SDS011;67556;55.656;12.590;2023-02-28T08:03:14;22.52;;;13.05;;
78298;SDS011;67556;55.656;12.590;2023-02-28T08:05:41;20.67;;;12.50;;
78298;SDS011;67556;55.656;12.590;2023-02-28T08:08:08;19.55;;;12.63;;
78298;SDS011;67556;55.656;12.590;2023-02-28T08:10:36;22.30;;;13.00;;
78298;SDS011;67556;55.656;12.590;2023-02-28T08:13:03;20.67;;;13.57;;
78298;SDS011;67556;55.656;12.590;2023-02-28T08:15:30;21.60;;;12.60;;
78298;SDS011;67556;55.656;12.590;2023-02-28T08:17:56;19.25;;;12.70;;
78298;SDS011;67556;55.656;12.590;2023-02-28T08:20:23;18.38;;;12.25;;
78298;SDS011;67556;55.656;12.590;2023-02-28T08:22:50;18.45;;;13.07;;
78298;SDS011;67556;55.656;12.590;2023-02-28T08:25:16;20.27;;;13.93;;
78298;SDS011;67556;55.656;12.590;2023-02-28T08:27:44;16.05;;;11.57;;
78298;SDS011;67556;55.656;12.590;2023-02-28T08:30:11;15.50;;;11.90;;
78298;SDS011;67556;55.656;12.590;2023-02-28T08:32:39;18.00;;;11.70;;
78298;SDS011;67556;55.656;12.590;2023-02-28T08:35:07;18.33;;;11.68;;
78298;SDS011;67556;55.656;12.590;2023-02-28T08:37:35;18.00;;;11.45;;
78298;SDS011;67556;55.656;12.590;2023-02-28T08:40:02;19.33;;;12.20;;
78298;SDS011;67556;55.656;12.590;2023-02-28T08:42:29;18.35;;;11.60;;
78298;SDS011;67556;55.656;12.590;2023-02-28T08:44:57;18.92;;;12.63;;
78298;SDS011;67556;55.656;12.590;2023-02-28T08:47:24;15.48;;;10.27;;
78298;SDS011;67556;55.656;12.590;2023-02-28T08:49:51;16.77;;;11.50;;
78298;SDS011;67556;55.656;12.590;2023-02-28T08:52:17;16.08;;;11.48;;
78298;SDS011;67556;55.656;12.590;2023-02-28T08:54:44;14.95;;;10.90;;
78298;SDS011;67556;55.656;12.590;2023-02-28T08:57:10;17.60;;;11.43;;
78298;SDS011;67556;55.656;12.590;2023-02-28T08:59:37;15.90;;;10.50;;
78298;SDS011;67556;55.656;12.590;2023-02-28T09:02:05;15.20;;;10.75;;
78298;SDS011;67556;55.656;12.590;2023-02-28T09:04:33;17.58;;;10.98;;
78298;SDS011;67556;55.656;12.590;2023-02-28T09:06:59;14.25;;;10.70;;
78298;SDS011;67556;55.656;12.590;2023-02-28T09:09:26;15.00;;;9.80;;
78298;SDS011;67556;55.656;12.590;2023-02-28T09:11:52;15.57;;;9.68;;
78298;SDS011;67556;55.656;12.590;2023-02-28T09:14:21;12.43;;;9.35;;
78298;SDS011;67556;55.656;12.590;2023-02-28T09:16:48;13.95;;;9.40;;
78298;SDS011;67556;55.656;12.590;2023-02-28T09:19:16;11.10;;;8.00;;
78298;SDS011;67556;55.656;12.590;2023-02-28T09:21:42;13.02;;;8.85;;
78298;SDS011;67556;55.656;12.590;2023-02-28T09:24:09;12.65;;;8.45;;
78298;SDS011;67556;55.656;12.590;2023-02-28T09:26:36;12.52;;;7.30;;
78298;SDS011;67556;55.656;12.590;2023-02-28T09:29:03;10.82;;;7.43;;
78298;SDS011;67556;55.656;12.590;2023-02-28T09:31:30;13.65;;;8.65;;
78298;SDS011;67556;55.656;12.590;2023-02-28T09:33:56;16.38;;;8.65;;
78298;SDS011;67556;55.656;12.590;2023-02-28T09:36:26;12.98;;;8.88;;
78298;SDS011;67556;55.656;12.590;2023-02-28T09:38:54;12.57;;;8.48;;
78298;SDS011;67556;55.656;12.590;2023-02-28T09:41:22;11.98;;;8.70;;
78298;SDS011;67556;55.656;12.590;2023-02-28T09:43:51;10.00;;;7.57;;
78298;SDS011;67556;55.656;12.590;2023-02-28T09:46:25;10.63;;;8.00;;
78298;SDS011;67556;55.656;12.590;2023-02-28T09:48:56;13.80;;;8.27;;
78298;SDS011;67556;55.656;12.590;2023-02-28T09:51:33;7.93;;;6.40;;
78298;SDS011;67556;55.656;12.590;2023-02-28T09:54:09;9.00;;;5.75;;
78298;SDS011;67556;55.656;12.590;2023-02-28T09:56:44;9.23;;;5.68;;
78298;SDS011;67556;55.656;12.590;2023-02-28T09:59:13;10.85;;;6.13;;
78298;SDS011;67556;55.656;12.590;2023-02-28T10:01:53;6.82;;;4.85;;
78298;SDS011;67556;55.656;12.590;2023-02-28T10:04:30;6.03;;;4.97;;
78298;SDS011;67556;55.656;12.590;2023-02-28T10:09:45;5.55;;;4.60;;
78298;SDS011;67556;55.656;12.590;2023-02-28T10:12:15;8.77;;;4.43;;
78298;SDS011;67556;55.656;12.590;2023-02-28T10:14:44;5.93;;;4.78;;
78298;SDS011;67556;55.656;12.590;2023-02-28T10:17:13;6.60;;;4.10;;
78298;SDS011;67556;55.656;12.590;2023-02-28T10:19:47;8.07;;;4.43;;
78298;SDS011;67556;55.656;12.590;2023-02-28T10:22:24;4.72;;;3.28;;
78298;SDS011;67556;55.656;12.590;2023-02-28T10:24:55;4.97;;;3.40;;
78298;SDS011;67556;55.656;12.590;2023-02-28T10:27:25;5.72;;;3.88;;
78298;SDS011;67556;55.656;12.590;2023-02-28T10:29:56;6.47;;;4.95;;
78298;SDS011;67556;55.656;12.590;2023-02-28T10:32:26;9.65;;;4.43;;
78298;SDS011;67556;55.656;12.590;2023-02-28T10:34:55;6.10;;;4.18;;
78298;SDS011;67556;55.656;12.590;2023-02-28T10:37:26;7.55;;;4.55;;
78298;SDS011;67556;55.656;12.590;2023-02-28T10:39:53;8.77;;;4.20;;
78298;SDS011;67556;55.656;12.590;2023-02-28T10:42:21;8.68;;;4.43;;
78298;SDS011;67556;55.656;12.590;2023-02-28T10:45:02;8.85;;;4.82;;
78298;SDS011;67556;55.656;12.590;2023-02-28T10:47:32;6.03;;;4.10;;
78298;SDS011;67556;55.656;12.590;2023-02-28T10:50:01;5.10;;;3.95;;
78298;SDS011;67556;55.656;12.590;2023-02-28T10:52:37;6.88;;;4.30;;
78298;SDS011;67556;55.656;12.590;2023-02-28T10:55:14;8.85;;;4.25;;
78298;SDS011;67556;55.656;12.590;2023-02-28T10:57:42;6.05;;;4.25;;
78298;SDS011;67556;55.656;12.590;2023-02-28T11:00:12;6.50;;;4.00;;
78298;SDS011;67556;55.656;12.590;2023-02-28T11:02:41;8.13;;;4.28;;
78298;SDS011;67556;55.656;12.590;2023-02-28T11:05:23;11.57;;;4.78;;
78298;SDS011;67556;55.656;12.590;2023-02-28T11:07:53;11.20;;;6.93;;
78298;SDS011;67556;55.656;12.590;2023-02-28T11:10:21;14.70;;;8.45;;
78298;SDS011;67556;55.656;12.590;2023-02-28T11:12:54;12.63;;;7.75;;
78298;SDS011;67556;55.656;12.590;2023-02-28T11:15:22;18.35;;;9.95;;
78298;SDS011;67556;55.656;12.590;2023-02-28T11:17:54;13.82;;;8.38;;
78298;SDS011;67556;55.656;12.590;2023-02-28T11:20:23;10.02;;;7.28;;
78298;SDS011;67556;55.656;12.590;2023-02-28T11:22:53;15.73;;;9.25;;
78298;SDS011;67556;55.656;12.590;2023-02-28T11:25:24;15.02;;;8.60;;
78298;SDS011;67556;55.656;12.590;2023-02-28T11:27:54;13.50;;;8.48;;
78298;SDS011;67556;55.656;12.590;2023-02-28T11:33:18;13.18;;;8.32;;
78298;SDS011;67556;55.656;12.590;2023-02-28T11:35:48;14.57;;;9.30;;
78298;SDS011;67556;55.656;12.590;2023-02-28T11:38:17;12.68;;;8.38;;
78298;SDS011;67556;55.656;12.590;2023-02-28T11:40:47;12.82;;;7.68;;
78298;SDS011;67556;55.656;12.590;2023-02-28T11:43:22;11.55;;;7.13;;
78298;SDS011;67556;55.656;12.590;2023-02-28T11:46:10;12.70;;;7.13;;
78298;SDS011;67556;55.656;12.590;2023-02-28T11:48:45;9.93;;;5.75;;
78298;SDS011;67556;55.656;12.590;2023-02-28T11:51:21;9.65;;;6.10;;
78298;SDS011;67556;55.656;12.590;2023-02-28T11:54:01;9.57;;;5.40;;
78298;SDS011;67556;55.656;12.590;2023-02-28T11:56:38;7.75;;;5.00;;
78298;SDS011;67556;55.656;12.590;2023-02-28T11:59:27;7.03;;;4.32;;
78298;SDS011;67556;55.656;12.590;2023-02-28T12:02:05;8.50;;;4.93;;
78298;SDS011;67556;55.656;12.590;2023-02-28T12:04:48;4.50;;;3.58;;
78298;SDS011;67556;55.656;12.590;2023-02-28T12:07:25;5.65;;;3.75;;
78298;SDS011;67556;55.656;12.590;2023-02-28T12:10:06;4.43;;;3.10;;
78298;SDS011;67556;55.656;12.590;2023-02-28T12:12:46;6.00;;;3.20;;
78298;SDS011;67556;55.656;12.590;2023-02-28T12:15:24;5.88;;;3.13;;
78298;SDS011;67556;55.656;12.590;2023-02-28T12:18:04;6.53;;;3.25;;
78298;SDS011;67556;55.656;12.590;2023-02-28T12:20:45;5.68;;;3.78;;
78298;SDS011;67556;55.656;12.590;2023-02-28T12:23:19;4.68;;;3.42;;
78298;SDS011;67556;55.656;12.590;2023-02-28T12:25:57;6.25;;;3.25;;
78298;SDS011;67556;55.656;12.590;2023-02-28T12:28:30;6.97;;;3.40;;
78298;SDS011;67556;55.656;12.590;2023-02-28T12:31:00;3.92;;;2.95;;
78298;SDS011;67556;55.656;12.590;2023-02-28T12:33:32;5.43;;;3.50;;
78298;SDS011;67556;55.656;12.590;2023-02-28T12:36:03;4.68;;;3.17;;
78298;SDS011;67556;55.656;12.590;2023-02-28T12:38:38;4.75;;;3.58;;
78298;SDS011;67556;55.656;12.590;2023-02-28T12:41:10;5.22;;;3.47;;
78298;SDS011;67556;55.656;12.590;2023-02-28T12:43:40;5.15;;;3.40;;
78298;SDS011;67556;55.656;12.590;2023-02-28T12:46:10;6.60;;;3.67;;
78298;SDS011;67556;55.656;12.590;2023-02-28T12:48:42;6.03;;;3.80;;
78298;SDS011;67556;55.656;12.590;2023-02-28T12:51:11;4.45;;;3.13;;
78298;SDS011;67556;55.656;12.590;2023-02-28T12:53:43;4.40;;;3.38;;
78298;SDS011;67556;55.656;12.590;2023-02-28T12:56:22;3.92;;;3.10;;
78298;SDS011;67556;55.656;12.590;2023-02-28T12:59:01;4.40;;;3.30;;
78298;SDS011;67556;55.656;12.590;2023-02-28T13:04:42;5.63;;;3.13;;
78298;SDS011;67556;55.656;12.590;2023-02-28T13:10:12;3.97;;;2.92;;
78298;SDS011;67556;55.656;12.590;2023-02-28T13:12:48;4.65;;;3.10;;
78298;SDS011;67556;55.656;12.590;2023-02-28T13:15:17;3.70;;;2.80;;
78298;SDS011;67556;55.656;12.590;2023-02-28T13:17:48;5.93;;;3.13;;
78298;SDS011;67556;55.656;12.590;2023-02-28T13:20:17;4.00;;;3.30;;
78298;SDS011;67556;55.656;12.590;2023-02-28T13:22:45;6.28;;;3.45;;
78298;SDS011;67556;55.656;12.590;2023-02-28T13:31:33;5.45;;;3.20;;
78298;SDS011;67556;55.656;12.590;2023-02-28T13:34:38;5.95;;;3.08;;
78298;SDS011;67556;55.656;12.590;2023-02-28T13:43:02;6.40;;;3.40;;
78298;SDS011;67556;55.656;12.590;2023-02-28T13:45:29;5.95;;;3.45;;
78298;SDS011;67556;55.656;12.590;2023-02-28T13:48:03;6.28;;;3.63;;
78298;SDS011;67556;55.656;12.590;2023-02-28T13:50:34;4.32;;;3.33;;
78298;SDS011;67556;55.656;12.590;2023-02-28T13:53:24;6.88;;;3.95;;
78298;SDS011;67556;55.656;12.590;2023-02-28T13:56:27;4.88;;;2.85;;
78298;SDS011;67556;55.656;12.590;2023-02-28T13:59:04;4.57;;;2.75;;
78298;SDS011;67556;55.656;12.590;2023-02-28T14:01:46;4.78;;;3.15;;
78298;SDS011;67556;55.656;12.590;2023-02-28T14:04:37;4.65;;;3.15;;
78298;SDS011;67556;55.656;12.590;2023-02-28T14:07:18;5.60;;;3.20;;
78298;SDS011;67556;55.656;12.590;2023-02-28T14:09:49;6.53;;;3.10;;
78298;SDS011;67556;55.656;12.590;2023-02-28T14:18:23;6.32;;;3.22;;
78298;SDS011;67556;55.656;12.590;2023-02-28T14:21:11;3.10;;;2.45;;
78298;SDS011;67556;55.656;12.590;2023-02-28T14:26:56;4.88;;;2.80;;
78298;SDS011;67556;55.656;12.590;2023-02-28T14:32:40;5.82;;;4.00;;
78298;SDS011;67556;55.656;12.590;2023-02-28T14:35:18;5.03;;;2.80;;
78298;SDS011;67556;55.656;12.590;2023-02-28T14:37:56;3.38;;;2.78;;
78298;SDS011;67556;55.656;12.590;2023-02-28T14:40:27;4.22;;;3.08;;
78298;SDS011;67556;55.656;12.590;2023-02-28T14:42:57;4.63;;;2.92;;
78298;SDS011;67556;55.656;12.590;2023-02-28T14:45:26;5.53;;;2.80;;
78298;SDS011;67556;55.656;12.590;2023-02-28T14:47:55;6.63;;;2.95;;
78298;SDS011;67556;55.656;12.590;2023-02-28T14:50:33;4.10;;;2.72;;
78298;SDS011;67556;55.656;12.590;2023-02-28T14:53:03;6.10;;;3.63;;
78298;SDS011;67556;55.656;12.590;2023-02-28T14:55:32;4.85;;;3.20;;
78298;SDS011;67556;55.656;12.590;2023-02-28T14:58:01;4.80;;;2.90;;
78298;SDS011;67556;55.656;12.590;2023-02-28T15:00:32;4.07;;;2.90;;
78298;SDS011;67556;55.656;12.590;2023-02-28T15:05:47;3.95;;;3.25;;
78298;SDS011;67556;55.656;12.590;2023-02-28T15:08:20;5.45;;;3.22;;
78298;SDS011;67556;55.656;12.590;2023-02-28T15:10:50;4.20;;;3.10;;
78298;SDS011;67556;55.656;12.590;2023-02-28T15:13:18;4.18;;;3.08;;
78298;SDS011;67556;55.656;12.590;2023-02-28T15:15:47;6.68;;;3.40;;
78298;SDS011;67556;55.656;12.590;2023-02-28T15:18:22;5.60;;;3.30;;
78298;SDS011;67556;55.656;12.590;2023-02-28T15:20:53;4.35;;;3.17;;
78298;SDS011;67556;55.656;12.590;2023-02-28T15:23:23;5.93;;;3.70;;
78298;SDS011;67556;55.656;12.590;2023-02-28T15:25:50;4.72;;;3.13;;
78298;SDS011;67556;55.656;12.590;2023-02-28T15:28:19;5.22;;;3.67;;